createdAt,value
2018-09-08T00:00:35.616Z,26.89
2018-09-08T00:01:15.017Z,26.90
2018-09-08T00:01:52.968Z,26.92
2018-09-08T00:02:32.078Z,26.94
2018-09-08T00:03:10.153Z,26.95
2018-09-08T00:03:48.225Z,26.97
2018-09-08T00:04:26.290Z,26.98
2018-09-08T00:05:04.196Z,27.01
2018-09-08T00:05:42.149Z,27.01
2018-09-08T00:06:25.146Z,27.03
2018-09-08T00:07:07.188Z,27.04
2018-09-08T00:07:45.277Z,27.05
2018-09-08T00:08:23.261Z,27.06
2018-09-08T00:09:01.424Z,27.08
2018-09-08T00:09:39.604Z,27.10
2018-09-08T00:10:17.750Z,27.11
2018-09-08T00:10:55.778Z,27.12
2018-09-08T00:11:33.957Z,27.14
2018-09-08T00:12:11.981Z,27.15
2018-09-08T00:12:49.972Z,27.18
2018-09-08T00:13:28.058Z,27.19
2018-09-08T00:14:06.265Z,27.18
2018-09-08T00:14:42.323Z,27.20
2018-09-08T00:15:24.319Z,27.22
2018-09-08T00:16:07.694Z,27.22
2018-09-08T00:16:49.947Z,27.23
2018-09-08T00:17:31.946Z,27.25
2018-09-08T00:18:14.157Z,27.27
2018-09-08T00:18:56.143Z,27.29
2018-09-08T00:19:38.404Z,27.28
2018-09-08T00:20:21.097Z,27.31
2018-09-08T00:21:03.073Z,27.33
2018-09-08T00:21:45.112Z,27.34
2018-09-08T00:22:27.043Z,27.37
2018-09-08T00:23:08.947Z,27.41
2018-09-08T00:23:51.061Z,27.45
2018-09-08T00:24:33.052Z,27.49
2018-09-08T00:25:15.169Z,27.51
2018-09-08T00:25:57.333Z,27.53
2018-09-08T00:26:34.415Z,27.53
2018-09-08T00:27:10.662Z,27.54
2018-09-08T00:27:58.577Z,27.56
2018-09-08T00:28:41.725Z,27.56
2018-09-08T00:29:23.865Z,27.59
2018-09-08T00:30:05.394Z,27.62
2018-09-08T00:30:43.818Z,27.62
2018-09-08T00:31:23.027Z,27.65
2018-09-08T00:32:01.606Z,27.66
2018-09-08T00:32:41.117Z,27.68
2018-09-08T00:33:19.153Z,27.68
2018-09-08T00:33:57.149Z,27.68
2018-09-08T00:34:35.174Z,27.71
2018-09-08T00:35:13.250Z,27.73
2018-09-08T00:35:51.275Z,27.73
2018-09-08T00:36:29.350Z,27.74
2018-09-08T00:37:07.406Z,27.73
2018-09-08T00:37:45.481Z,27.73
2018-09-08T00:38:23.526Z,27.72
2018-09-08T00:39:01.537Z,27.73
2018-09-08T00:39:39.925Z,27.72
2018-09-08T00:40:17.950Z,27.72
2018-09-08T00:40:55.996Z,27.71
2018-09-08T00:41:34.039Z,27.71
2018-09-08T00:42:12.046Z,27.71
2018-09-08T00:42:50.270Z,27.68
2018-09-08T00:43:28.339Z,27.68
2018-09-08T00:44:06.567Z,27.66
2018-09-08T00:44:44.557Z,27.64
2018-09-08T00:45:22.466Z,27.61
2018-09-08T00:46:00.357Z,27.60
2018-09-08T00:46:38.333Z,27.58
2018-09-08T00:47:16.351Z,27.58
2018-09-08T00:47:54.360Z,27.57
2018-09-08T00:48:32.484Z,27.57
2018-09-08T00:49:10.466Z,27.57
2018-09-08T00:49:48.706Z,27.54
2018-09-08T00:50:26.695Z,27.56
2018-09-08T00:51:04.621Z,27.57
2018-09-08T00:51:42.736Z,27.58
2018-09-08T00:52:20.813Z,27.60
2018-09-08T00:52:59.338Z,27.62
2018-09-08T00:53:37.368Z,27.64
2018-09-08T00:54:15.269Z,27.67
2018-09-08T00:54:53.314Z,27.69
2018-09-08T00:55:31.481Z,27.72
2018-09-08T00:56:09.632Z,27.75
2018-09-08T00:56:47.733Z,27.80
2018-09-08T00:57:25.617Z,27.82
2018-09-08T00:58:03.794Z,27.86
2018-09-08T00:58:45.231Z,27.91
2018-09-08T00:59:23.180Z,27.93
2018-09-08T01:00:01.242Z,27.95
2018-09-08T01:00:39.338Z,27.97
2018-09-08T01:01:18.069Z,27.99
2018-09-08T01:01:56.124Z,28.00
2018-09-08T01:02:34.412Z,28.01
2018-09-08T01:03:12.415Z,28.05
2018-09-08T01:03:50.446Z,28.09
2018-09-08T01:04:28.570Z,28.10
2018-09-08T01:05:06.557Z,28.11
2018-09-08T01:05:44.872Z,28.12
2018-09-08T01:06:23.194Z,28.14
2018-09-08T01:07:01.290Z,28.17
2018-09-08T01:07:39.487Z,28.20
2018-09-08T01:08:17.769Z,28.24
2018-09-08T01:08:56.028Z,28.26
2018-09-08T01:09:34.423Z,28.32
2018-09-08T01:10:12.871Z,28.39
2018-09-08T01:10:51.279Z,28.44
2018-09-08T01:11:29.547Z,28.44
2018-09-08T01:12:07.821Z,28.45
2018-09-08T01:12:46.183Z,28.43
2018-09-08T01:13:24.341Z,28.44
2018-09-08T01:14:02.482Z,28.45
2018-09-08T01:14:40.383Z,28.45
2018-09-08T01:15:18.316Z,28.47
2018-09-08T01:15:56.333Z,28.46
2018-09-08T01:16:34.430Z,28.47
2018-09-08T01:17:12.418Z,28.47
2018-09-08T01:17:50.437Z,28.49
2018-09-08T01:18:28.378Z,28.50
2018-09-08T01:19:06.806Z,28.53
2018-09-08T01:19:44.672Z,28.53
2018-09-08T01:20:22.801Z,28.55
2018-09-08T01:21:00.683Z,28.56
2018-09-08T01:21:38.758Z,28.59
2018-09-08T01:22:16.738Z,28.60
2018-09-08T01:22:54.647Z,28.61
2018-09-08T01:23:32.802Z,28.64
2018-09-08T01:24:10.827Z,28.68
2018-09-08T01:24:48.903Z,28.71
2018-09-08T01:25:26.886Z,28.73
2018-09-08T01:26:04.898Z,28.75
2018-09-08T01:26:43.030Z,28.77
2018-09-08T01:27:20.928Z,28.79
2018-09-08T01:27:58.787Z,28.82
2018-09-08T01:28:36.896Z,28.85
2018-09-08T01:29:14.940Z,28.85
2018-09-08T01:29:52.885Z,28.89
2018-09-08T01:30:30.879Z,28.91
2018-09-08T01:31:08.907Z,28.93
2018-09-08T01:31:47.339Z,28.93
2018-09-08T01:32:25.390Z,28.97
2018-09-08T01:33:03.411Z,29.03
2018-09-08T01:33:41.461Z,29.06
2018-09-08T01:34:20.101Z,29.12
2018-09-08T01:34:57.959Z,29.17
2018-09-08T01:35:36.029Z,29.19
2018-09-08T01:36:13.947Z,29.20
2018-09-08T01:36:52.016Z,29.22
2018-09-08T01:37:29.958Z,29.24
2018-09-08T01:38:07.898Z,29.27
2018-09-08T01:38:45.923Z,29.30
2018-09-08T01:39:23.883Z,29.33
2018-09-08T01:40:01.807Z,29.35
2018-09-08T01:40:39.807Z,29.40
2018-09-08T01:41:17.729Z,29.41
2018-09-08T01:41:55.641Z,29.51
2018-09-08T01:42:33.625Z,29.58
2018-09-08T01:43:11.763Z,29.65
2018-09-08T01:43:49.834Z,29.72
2018-09-08T01:44:29.129Z,29.78
2018-09-08T01:45:07.081Z,29.87
2018-09-08T01:45:44.985Z,29.94
2018-09-08T01:46:22.960Z,30.01
2018-09-08T01:47:01.054Z,30.08
2018-09-08T01:47:39.333Z,30.14
2018-09-08T01:48:17.264Z,30.21
2018-09-08T01:48:55.280Z,30.25
2018-09-08T01:49:33.145Z,30.24
2018-09-08T01:50:11.359Z,30.35
2018-09-08T01:50:49.384Z,30.38
2018-09-08T01:51:28.327Z,30.39
2018-09-08T01:52:06.364Z,30.42
2018-09-08T01:52:44.368Z,30.44
2018-09-08T01:53:22.320Z,30.49
2018-09-08T01:54:00.386Z,30.51
2018-09-08T01:54:38.232Z,30.54
2018-09-08T01:55:18.038Z,30.58
2018-09-08T01:55:55.957Z,30.63
2018-09-08T01:56:34.032Z,30.70
2018-09-08T01:57:11.988Z,30.75
2018-09-08T01:57:50.335Z,30.77
2018-09-08T01:58:28.352Z,30.88
2018-09-08T01:59:06.394Z,30.93
2018-09-08T01:59:44.496Z,31.01
2018-09-08T02:00:22.411Z,31.07
2018-09-08T02:01:00.257Z,31.10
2018-09-08T02:01:38.177Z,31.19
2018-09-08T02:02:16.967Z,31.21
2018-09-08T02:02:54.807Z,31.16
2018-09-08T02:03:32.826Z,31.13
2018-09-08T02:04:10.781Z,31.06
2018-09-08T02:04:48.792Z,30.99
2018-09-08T02:05:26.705Z,30.93
2018-09-08T02:06:04.797Z,30.91
2018-09-08T02:06:43.733Z,30.88
2018-09-08T02:07:22.001Z,30.85
2018-09-08T02:08:00.029Z,30.84
2018-09-08T02:08:37.948Z,30.85
2018-09-08T02:09:17.110Z,30.86
2018-09-08T02:09:54.967Z,30.84
2018-09-08T02:10:32.935Z,30.83
2018-09-08T02:11:11.328Z,30.83
2018-09-08T02:11:49.593Z,30.85
2018-09-08T02:12:27.550Z,30.85
2018-09-08T02:13:05.555Z,30.96
2018-09-08T02:13:43.597Z,31.01
2018-09-08T02:14:21.550Z,31.05
2018-09-08T02:14:59.502Z,31.05
2018-09-08T02:15:37.409Z,31.06
2018-09-08T02:16:15.396Z,31.06
2018-09-08T02:16:53.329Z,31.08
2018-09-08T02:17:31.320Z,31.21
2018-09-08T02:18:09.328Z,31.36
2018-09-08T02:18:47.572Z,31.44
2018-09-08T02:19:25.568Z,31.39
2018-09-08T02:20:03.542Z,31.35
2018-09-08T02:20:41.484Z,31.32
2018-09-08T02:21:19.527Z,31.32
2018-09-08T02:21:57.565Z,31.33
2018-09-08T02:22:35.499Z,31.33
2018-09-08T02:23:13.504Z,31.32
2018-09-08T02:23:51.605Z,31.33
2018-09-08T02:24:29.481Z,31.44
2018-09-08T02:25:08.278Z,31.55
2018-09-08T02:25:46.208Z,31.59
2018-09-08T02:26:24.264Z,31.62
2018-09-08T02:27:02.188Z,31.61
2018-09-08T02:27:40.199Z,31.60
2018-09-08T02:28:18.227Z,31.56
2018-09-08T02:28:56.182Z,31.53
2018-09-08T02:29:34.252Z,31.50
2018-09-08T02:30:12.392Z,31.49
2018-09-08T02:30:50.305Z,31.49
2018-09-08T02:31:28.357Z,31.44
2018-09-08T02:32:06.396Z,31.39
2018-09-08T02:32:44.363Z,31.38
2018-09-08T02:33:22.350Z,31.35
2018-09-08T02:34:00.328Z,31.34
2018-09-08T02:34:39.255Z,31.33
2018-09-08T02:35:17.278Z,31.35
2018-09-08T02:35:55.269Z,31.38
2018-09-08T02:36:33.272Z,31.39
2018-09-08T02:37:11.227Z,31.36
2018-09-08T02:37:49.245Z,31.40
2018-09-08T02:38:27.116Z,31.50
2018-09-08T02:39:05.212Z,31.57
2018-09-08T02:39:43.175Z,31.65
2018-09-08T02:40:21.231Z,31.73
2018-09-08T02:40:59.281Z,31.78
2018-09-08T02:41:37.240Z,31.82
2018-09-08T02:42:15.137Z,31.87
2018-09-08T02:42:53.101Z,31.86
2018-09-08T02:43:31.152Z,31.85
2018-09-08T02:44:09.056Z,32.05
2018-09-08T02:44:47.075Z,32.20
2018-09-08T02:45:25.955Z,32.31
2018-09-08T02:46:03.836Z,32.35
2018-09-08T02:46:42.280Z,32.31
2018-09-08T02:47:20.194Z,32.28
2018-09-08T02:47:58.236Z,32.23
2018-09-08T02:48:36.392Z,32.24
2018-09-08T02:49:14.380Z,32.21
2018-09-08T02:50:01.218Z,32.17
2018-09-08T02:50:39.954Z,32.13
2018-09-08T02:51:14.724Z,32.20
2018-09-08T02:51:49.468Z,32.28
2018-09-08T02:52:24.329Z,32.35
2018-09-08T02:52:59.242Z,32.41
2018-09-08T02:53:34.022Z,32.53
2018-09-08T02:54:08.814Z,32.66
2018-09-08T02:54:43.526Z,32.69
2018-09-08T02:55:18.304Z,32.68
2018-09-08T02:55:53.019Z,32.67
2018-09-08T02:56:27.818Z,32.64
2018-09-08T02:57:02.641Z,32.61
2018-09-08T02:57:37.359Z,32.60
2018-09-08T02:58:12.102Z,32.58
2018-09-08T02:58:46.841Z,32.57
2018-09-08T02:59:21.576Z,32.56
2018-09-08T02:59:56.737Z,32.55
2018-09-08T03:00:31.938Z,32.54
2018-09-08T03:01:06.744Z,32.49
2018-09-08T03:01:41.488Z,32.45
2018-09-08T03:02:16.277Z,32.39
2018-09-08T03:02:51.171Z,32.34
2018-09-08T03:03:25.951Z,32.30
2018-09-08T03:04:00.709Z,32.25
2018-09-08T03:04:35.446Z,32.18
2018-09-08T03:05:10.222Z,32.10
2018-09-08T03:05:44.958Z,32.03
2018-09-08T03:06:19.680Z,31.95
2018-09-08T03:06:54.497Z,31.87
2018-09-08T03:07:29.266Z,31.76
2018-09-08T03:08:03.985Z,31.66
2018-09-08T03:08:38.740Z,31.57
2018-09-08T03:09:13.494Z,31.37
2018-09-08T03:09:48.381Z,31.23
2018-09-08T03:10:23.837Z,31.14
2018-09-08T03:10:58.700Z,31.01
2018-09-08T03:11:33.468Z,30.76
2018-09-08T03:12:08.333Z,30.58
2018-09-08T03:12:43.102Z,30.47
2018-09-08T03:13:17.841Z,30.38
2018-09-08T03:13:52.675Z,30.33
2018-09-08T03:14:27.434Z,30.28
2018-09-08T03:15:02.248Z,30.10
2018-09-08T03:15:36.975Z,30.04
2018-09-08T03:16:11.680Z,29.98
2018-09-08T03:16:46.460Z,29.95
2018-09-08T03:17:21.318Z,29.84
2018-09-08T03:17:56.076Z,29.76
2018-09-08T03:18:32.161Z,29.76
2018-09-08T03:19:06.921Z,29.71
2018-09-08T03:19:41.632Z,29.63
2018-09-08T03:20:16.423Z,29.62
2018-09-08T03:20:51.279Z,29.55
2018-09-08T03:21:26.075Z,29.57
2018-09-08T03:22:00.892Z,29.53
2018-09-08T03:22:35.590Z,29.49
2018-09-08T03:23:10.364Z,29.42
2018-09-08T03:23:45.104Z,29.41
2018-09-08T03:24:19.767Z,29.39
2018-09-08T03:24:54.543Z,29.31
2018-09-08T03:25:29.299Z,29.28
2018-09-08T03:26:04.129Z,29.19
2018-09-08T03:26:38.835Z,29.11
2018-09-08T03:27:13.616Z,29.06
2018-09-08T03:27:48.340Z,29.02
2018-09-08T03:28:23.064Z,28.96
2018-09-08T03:28:57.811Z,28.87
2018-09-08T03:29:32.601Z,28.76
2018-09-08T03:30:07.467Z,28.72
2018-09-08T03:30:42.165Z,28.69
2018-09-08T03:31:17.015Z,28.60
2018-09-08T03:31:51.816Z,28.55
2018-09-08T03:32:26.753Z,28.48
2018-09-08T03:33:01.531Z,28.42
2018-09-08T03:33:36.305Z,28.34
2018-09-08T03:34:11.085Z,28.30
2018-09-08T03:34:45.969Z,28.25
2018-09-08T03:35:20.740Z,28.14
2018-09-08T03:35:55.503Z,28.14
2018-09-08T03:36:30.398Z,28.10
2018-09-08T03:37:05.093Z,28.14
2018-09-08T03:37:39.834Z,28.14
2018-09-08T03:38:14.644Z,28.16
2018-09-08T03:38:49.487Z,28.18
2018-09-08T03:39:24.229Z,28.16
2018-09-08T03:39:58.925Z,28.19
2018-09-08T03:40:33.730Z,28.24
2018-09-08T03:41:08.669Z,28.27
2018-09-08T03:41:43.399Z,28.28
2018-09-08T03:42:18.158Z,28.30
2018-09-08T03:42:52.970Z,28.33
2018-09-08T03:43:27.740Z,28.31
2018-09-08T03:44:02.457Z,28.35
2018-09-08T03:44:37.225Z,28.35
2018-09-08T03:45:11.976Z,28.36
2018-09-08T03:45:46.653Z,28.40
2018-09-08T03:46:21.693Z,28.42
2018-09-08T03:46:56.540Z,28.39
2018-09-08T03:47:31.369Z,28.38
2018-09-08T03:48:06.167Z,28.42
2018-09-08T03:48:40.886Z,28.42
2018-09-08T03:49:15.642Z,28.45
2018-09-08T03:49:50.429Z,28.48
2018-09-08T03:50:25.282Z,28.54
2018-09-08T03:51:00.039Z,28.59
2018-09-08T03:51:34.858Z,28.61
2018-09-08T03:52:09.643Z,28.62
2018-09-08T03:52:44.392Z,28.69
2018-09-08T03:53:19.190Z,28.73
2018-09-08T03:53:53.906Z,28.77
2018-09-08T03:54:28.660Z,28.77
2018-09-08T03:55:03.364Z,28.80
2018-09-08T03:55:38.201Z,28.83
2018-09-08T03:56:13.388Z,28.86
2018-09-08T03:56:48.265Z,28.86
2018-09-08T03:57:23.027Z,28.89
2018-09-08T03:57:57.797Z,28.91
2018-09-08T03:58:32.649Z,28.94
2018-09-08T03:59:07.480Z,28.97
2018-09-08T03:59:42.278Z,29.00
2018-09-08T04:00:17.054Z,29.01
2018-09-08T04:00:52.075Z,29.03
2018-09-08T04:01:26.819Z,29.05
2018-09-08T04:02:01.612Z,29.06
2018-09-08T04:02:36.413Z,29.08
2018-09-08T04:03:14.663Z,29.10
2018-09-08T04:03:52.761Z,29.08
2018-09-08T04:04:30.866Z,29.13
2018-09-08T04:05:08.926Z,29.15
2018-09-08T04:05:46.774Z,29.18
2018-09-08T04:06:24.787Z,29.19
2018-09-08T04:07:02.799Z,29.18
2018-09-08T04:07:40.874Z,29.20
2018-09-08T04:08:18.899Z,29.20
2018-09-08T04:08:57.291Z,29.15
2018-09-08T04:09:35.253Z,29.20
2018-09-08T04:10:13.242Z,29.21
2018-09-08T04:10:51.354Z,29.21
2018-09-08T04:11:29.466Z,29.23
2018-09-08T04:12:07.632Z,29.23
2018-09-08T04:12:45.614Z,29.23
2018-09-08T04:13:23.693Z,29.23
2018-09-08T04:14:01.769Z,29.26
2018-09-08T04:14:39.695Z,29.25
2018-09-08T04:15:17.605Z,29.21
2018-09-08T04:15:55.757Z,29.25
2018-09-08T04:16:34.213Z,29.25
2018-09-08T04:17:12.252Z,29.26
2018-09-08T04:17:50.220Z,29.20
2018-09-08T04:18:28.249Z,29.20
2018-09-08T04:19:06.354Z,29.21
2018-09-08T04:19:44.321Z,29.19
2018-09-08T04:20:23.120Z,29.19
2018-09-08T04:21:01.237Z,29.20
2018-09-08T04:21:39.247Z,29.19
2018-09-08T04:22:17.143Z,29.19
2018-09-08T04:22:55.119Z,29.20
2018-09-08T04:23:33.267Z,29.21
2018-09-08T04:24:11.323Z,29.21
2018-09-08T04:24:49.398Z,29.20
2018-09-08T04:25:27.361Z,29.20
2018-09-08T04:26:05.464Z,29.19
2018-09-08T04:26:43.463Z,29.19
2018-09-08T04:27:21.588Z,29.18
2018-09-08T04:27:59.484Z,29.17
2018-09-08T04:28:37.465Z,29.18
2018-09-08T04:29:15.479Z,29.12
2018-09-08T04:29:53.456Z,29.05
2018-09-08T04:30:32.368Z,29.08
2018-09-08T04:31:10.447Z,29.08
2018-09-08T04:31:48.442Z,29.09
2018-09-08T04:32:26.509Z,29.11
2018-09-08T04:33:04.679Z,29.12
2018-09-08T04:33:42.639Z,29.14
2018-09-08T04:34:20.608Z,29.16
2018-09-08T04:34:58.541Z,29.18
2018-09-08T04:35:36.520Z,29.17
2018-09-08T04:36:14.498Z,29.20
2018-09-08T04:36:52.864Z,29.20
2018-09-08T04:37:30.775Z,29.21
2018-09-08T04:38:08.713Z,29.24
2018-09-08T04:38:46.555Z,29.25
2018-09-08T04:39:24.689Z,29.24
2018-09-08T04:40:02.623Z,29.24
2018-09-08T04:40:40.614Z,29.24
2018-09-08T04:41:18.713Z,29.23
2018-09-08T04:41:56.706Z,29.21
2018-09-08T04:42:34.808Z,29.20
2018-09-08T04:43:12.850Z,29.18
2018-09-08T04:43:50.808Z,29.19
2018-09-08T04:44:28.680Z,29.20
2018-09-08T04:45:06.714Z,29.20
2018-09-08T04:45:44.527Z,29.22
2018-09-08T04:46:22.379Z,29.24
2018-09-08T04:47:00.371Z,29.23
2018-09-08T04:47:38.360Z,29.23
2018-09-08T04:48:17.099Z,29.23
2018-09-08T04:48:54.969Z,29.23
2018-09-08T04:49:32.969Z,29.23
2018-09-08T04:50:10.976Z,29.24
2018-09-08T04:50:48.943Z,29.19
2018-09-08T04:51:26.848Z,29.21
2018-09-08T04:52:05.202Z,29.20
2018-09-08T04:52:43.052Z,29.19
2018-09-08T04:53:21.453Z,29.17
2018-09-08T04:53:59.525Z,29.18
2018-09-08T04:54:37.538Z,29.16
2018-09-08T04:55:15.391Z,29.15
2018-09-08T04:55:53.264Z,29.14
2018-09-08T04:56:31.310Z,29.15
2018-09-08T04:57:09.453Z,29.14
2018-09-08T04:57:47.491Z,29.13
2018-09-08T04:58:25.652Z,29.14
2018-09-08T04:59:03.877Z,29.13
2018-09-08T04:59:41.862Z,29.11
2018-09-08T05:00:19.946Z,29.12
2018-09-08T05:00:57.876Z,29.09
2018-09-08T05:01:35.932Z,29.07
2018-09-08T05:02:13.924Z,29.07
2018-09-08T05:02:52.036Z,29.04
2018-09-08T05:03:29.889Z,29.02
2018-09-08T05:04:07.856Z,29.02
2018-09-08T05:04:45.885Z,29.00
2018-09-08T05:05:23.972Z,28.99
2018-09-08T05:06:01.970Z,28.98
2018-09-08T05:06:39.935Z,28.99
2018-09-08T05:07:17.882Z,28.99
2018-09-08T05:07:56.919Z,29.00
2018-09-08T05:08:34.905Z,28.98
2018-09-08T05:09:14.387Z,28.98
2018-09-08T05:09:52.317Z,29.00
2018-09-08T05:10:30.284Z,29.00
2018-09-08T05:11:08.294Z,29.01
2018-09-08T05:11:46.293Z,29.03
2018-09-08T05:12:24.375Z,29.04
2018-09-08T05:13:02.479Z,29.05
2018-09-08T05:13:40.496Z,29.07
2018-09-08T05:14:18.613Z,29.07
2018-09-08T05:14:56.565Z,29.06
2018-09-08T05:15:34.579Z,29.08
2018-09-08T05:16:12.511Z,29.04
2018-09-08T05:16:50.442Z,29.02
2018-09-08T05:17:29.422Z,29.02
2018-09-08T05:18:07.499Z,29.03
2018-09-08T05:18:46.354Z,29.01
2018-09-08T05:19:24.472Z,29.01
2018-09-08T05:20:02.476Z,29.01
2018-09-08T05:20:40.501Z,29.04
2018-09-08T05:21:18.463Z,29.05
2018-09-08T05:21:56.438Z,29.04
2018-09-08T05:22:34.408Z,29.05
2018-09-08T05:23:12.581Z,29.06
2018-09-08T05:23:50.493Z,29.07
2018-09-08T05:24:28.549Z,29.07
2018-09-08T05:25:06.532Z,29.07
2018-09-08T05:25:44.549Z,29.02
2018-09-08T05:26:22.493Z,29.09
2018-09-08T05:27:00.880Z,29.09
2018-09-08T05:27:38.927Z,29.01
2018-09-08T05:28:17.020Z,29.09
2018-09-08T05:28:54.997Z,29.09
2018-09-08T05:29:33.058Z,29.06
2018-09-08T05:30:11.045Z,29.07
2018-09-08T05:30:48.973Z,29.07
2018-09-08T05:31:27.021Z,29.06
2018-09-08T05:32:05.058Z,29.06
2018-09-08T05:32:43.062Z,29.04
2018-09-08T05:33:21.540Z,29.01
2018-09-08T05:33:59.484Z,29.00
2018-09-08T05:34:37.436Z,28.98
2018-09-08T05:35:15.387Z,28.95
2018-09-08T05:35:53.273Z,28.95
2018-09-08T05:36:31.339Z,28.94
2018-09-08T05:37:09.425Z,28.92
2018-09-08T05:37:47.304Z,28.93
2018-09-08T05:38:25.269Z,28.94
2018-09-08T05:39:03.140Z,28.95
2018-09-08T05:39:41.129Z,28.94
2018-09-08T05:40:19.116Z,28.96
2018-09-08T05:40:57.097Z,28.95
2018-09-08T05:41:34.980Z,28.96
2018-09-08T05:42:13.810Z,28.95
2018-09-08T05:42:51.885Z,28.96
2018-09-08T05:43:29.911Z,28.96
2018-09-08T05:44:07.939Z,28.97
2018-09-08T05:45:28.011Z,28.96
2018-09-08T05:46:05.907Z,28.95
2018-09-08T05:46:43.965Z,28.93
2018-09-08T05:47:22.430Z,28.92
2018-09-08T05:48:00.395Z,28.93
2018-09-08T05:48:38.385Z,28.93
2018-09-08T05:49:16.244Z,28.92
2018-09-08T05:49:54.222Z,28.93
2018-09-08T05:50:32.373Z,28.94
2018-09-08T05:51:10.405Z,28.94
2018-09-08T05:51:48.467Z,28.96
2018-09-08T05:52:26.441Z,28.96
2018-09-08T05:53:04.598Z,28.98
2018-09-08T05:53:42.615Z,28.92
2018-09-08T05:54:20.645Z,28.98
2018-09-08T05:54:58.641Z,28.98
2018-09-08T05:55:36.575Z,28.96
2018-09-08T05:56:14.565Z,28.95
2018-09-08T05:56:52.663Z,28.98
2018-09-08T05:57:30.661Z,28.99
2018-09-08T05:58:08.594Z,29.00
2018-09-08T05:58:46.608Z,29.01
2018-09-08T05:59:24.475Z,29.02
2018-09-08T06:00:02.479Z,29.02
2018-09-08T06:00:40.421Z,29.02
2018-09-08T06:01:18.579Z,29.02
2018-09-08T06:01:56.686Z,28.98
2018-09-08T06:02:34.517Z,28.96
2018-09-08T06:03:12.444Z,28.97
2018-09-08T06:03:50.535Z,28.91
2018-09-08T06:04:28.591Z,28.96
2018-09-08T06:05:06.536Z,28.94
2018-09-08T06:05:44.442Z,28.91
2018-09-08T06:06:22.389Z,28.92
2018-09-08T06:07:05.171Z,28.91
2018-09-08T06:07:43.273Z,28.86
2018-09-08T06:08:21.196Z,28.87
2018-09-08T06:08:59.181Z,28.86
2018-09-08T06:09:37.930Z,28.84
2018-09-08T06:10:16.501Z,28.84
2018-09-08T06:10:54.525Z,28.85
2018-09-08T06:11:32.529Z,28.84
2018-09-08T06:12:10.500Z,28.86
2018-09-08T06:12:48.293Z,28.86
2018-09-08T06:13:26.291Z,28.87
2018-09-08T06:14:04.151Z,28.89
2018-09-08T06:14:42.075Z,28.90
2018-09-08T06:15:20.041Z,28.90
2018-09-08T06:15:57.967Z,28.91
2018-09-08T06:16:36.114Z,28.93
2018-09-08T06:17:13.950Z,28.89
2018-09-08T06:17:51.860Z,28.94
2018-09-08T06:18:29.783Z,28.96
2018-09-08T06:19:07.938Z,28.97
2018-09-08T06:19:46.043Z,29.00
2018-09-08T06:20:24.098Z,28.98
2018-09-08T06:21:02.034Z,28.99
2018-09-08T06:21:40.038Z,29.00
2018-09-08T06:22:17.877Z,29.00
2018-09-08T06:22:55.982Z,29.02
2018-09-08T06:23:33.917Z,29.00
2018-09-08T06:24:11.763Z,29.02
2018-09-08T06:24:50.741Z,29.05
2018-09-08T06:25:28.827Z,29.06
2018-09-08T06:26:06.720Z,29.09
2018-09-08T06:26:44.679Z,29.12
2018-09-08T06:27:22.729Z,29.14
2018-09-08T06:28:01.369Z,29.14
2018-09-08T06:28:40.178Z,29.17
2018-09-08T06:29:18.494Z,29.17
2018-09-08T06:29:56.428Z,29.14
2018-09-08T06:30:34.323Z,29.18
2018-09-08T06:31:12.341Z,29.19
2018-09-08T06:31:50.376Z,29.21
2018-09-08T06:32:28.398Z,29.24
2018-09-08T06:33:06.327Z,29.25
2018-09-08T06:33:44.438Z,29.26
2018-09-08T06:34:22.405Z,29.26
2018-09-08T06:35:00.524Z,29.27
2018-09-08T06:35:38.665Z,29.29
2018-09-08T06:36:16.641Z,29.28
2018-09-08T06:36:54.716Z,29.31
2018-09-08T06:37:32.644Z,29.33
2018-09-08T06:38:10.724Z,29.33
2018-09-08T06:38:48.693Z,29.38
2018-09-08T06:39:26.660Z,29.39
2018-09-08T06:40:46.774Z,29.43
2018-09-08T06:41:25.906Z,29.46
2018-09-08T06:42:03.870Z,29.47
2018-09-08T06:42:41.870Z,29.49
2018-09-08T06:43:19.845Z,29.48
2018-09-08T06:43:57.885Z,29.50
2018-09-08T06:44:36.728Z,29.46
2018-09-08T06:45:14.747Z,29.53
2018-09-08T06:45:52.674Z,29.53
2018-09-08T06:46:30.553Z,29.55
2018-09-08T06:47:09.377Z,29.53
2018-09-08T06:47:47.352Z,29.60
2018-09-08T06:48:25.324Z,29.62
2018-09-08T06:49:03.581Z,29.61
2018-09-08T06:49:41.672Z,29.63
2018-09-08T06:52:11.473Z,29.69
2018-09-08T06:52:49.483Z,29.72
2018-09-08T06:53:27.336Z,29.72
2018-09-08T06:54:05.598Z,29.78
2018-09-08T06:54:43.669Z,29.79
2018-09-08T06:55:21.744Z,29.80
2018-09-08T06:55:59.809Z,29.83
2018-09-08T06:56:37.953Z,29.85
2018-09-08T06:57:15.969Z,29.89
2018-09-08T06:57:53.936Z,29.91
2018-09-08T06:58:31.888Z,29.94
2018-09-08T06:59:09.938Z,29.98
2018-09-08T06:59:47.822Z,30.01
2018-09-08T07:00:25.792Z,30.04
2018-09-08T07:01:03.813Z,30.06
2018-09-08T07:01:41.808Z,30.10
2018-09-08T07:02:19.844Z,30.11
2018-09-08T07:02:57.689Z,30.13
2018-09-08T07:03:35.702Z,30.21
2018-09-08T07:04:13.654Z,30.24
2018-09-08T07:04:51.517Z,30.26
2018-09-08T07:05:29.683Z,30.26
2018-09-08T07:06:07.686Z,30.33
2018-09-08T07:06:45.548Z,30.37
2018-09-08T07:07:23.473Z,30.40
2018-09-08T07:08:01.485Z,30.39
2018-09-08T07:08:39.498Z,30.44
2018-09-08T07:09:17.604Z,30.40
2018-09-08T07:09:55.584Z,30.47
2018-09-08T07:10:33.446Z,30.51
2018-09-08T07:11:11.601Z,30.56
2018-09-08T07:11:49.518Z,30.58
2018-09-08T07:12:27.548Z,30.64
2018-09-08T07:13:06.010Z,30.67
2018-09-08T07:13:43.968Z,30.72
2018-09-08T07:14:21.808Z,30.74
2018-09-08T07:14:59.919Z,30.77
2018-09-08T07:15:37.801Z,30.78
2018-09-08T07:16:15.805Z,30.72
2018-09-08T07:16:53.817Z,30.78
2018-09-08T07:17:32.655Z,30.84
2018-09-08T07:18:10.547Z,30.88
2018-09-08T07:18:48.701Z,30.93
2018-09-08T07:19:26.656Z,30.97
2018-09-08T07:20:04.689Z,31.01
2018-09-08T07:20:42.580Z,31.04
2018-09-08T07:21:20.529Z,31.07
2018-09-08T07:21:58.504Z,31.09
2018-09-08T07:22:36.460Z,31.12
2018-09-08T07:23:14.391Z,31.08
2018-09-08T07:23:52.325Z,31.15
2018-09-08T07:24:30.359Z,31.17
2018-09-08T07:25:08.685Z,31.18
2018-09-08T07:25:46.645Z,31.20
2018-09-08T07:26:24.667Z,31.21
2018-09-08T07:27:03.873Z,31.26
2018-09-08T07:27:41.805Z,31.30
2018-09-08T07:28:19.971Z,31.34
2018-09-08T07:28:57.970Z,31.40
2018-09-08T07:29:35.991Z,31.45
2018-09-08T07:30:14.151Z,31.53
2018-09-08T07:30:52.373Z,31.57
2018-09-08T07:31:30.533Z,31.61
2018-09-08T07:32:08.525Z,31.68
2018-09-08T07:32:46.538Z,31.73
2018-09-08T07:33:24.632Z,31.75
2018-09-08T07:34:02.698Z,31.81
2018-09-08T07:34:40.636Z,31.82
2018-09-08T07:35:18.585Z,31.85
2018-09-08T07:35:56.595Z,31.90
2018-09-08T07:36:34.766Z,31.92
2018-09-08T07:37:12.696Z,31.93
2018-09-08T07:37:50.802Z,31.94
2018-09-08T07:38:31.345Z,31.88
2018-09-08T07:39:12.872Z,31.85
2018-09-08T07:39:50.849Z,31.85
2018-09-08T07:40:28.846Z,31.85
2018-09-08T07:41:07.008Z,31.88
2018-09-08T07:41:44.957Z,31.91
2018-09-08T07:42:22.808Z,31.95
2018-09-08T07:43:01.659Z,32.01
2018-09-08T07:43:39.648Z,32.03
2018-09-08T07:44:17.666Z,32.05
2018-09-08T07:44:55.625Z,32.05
2018-09-08T07:45:33.523Z,32.05
2018-09-08T07:46:11.517Z,32.06
2018-09-08T07:46:49.568Z,32.10
2018-09-08T07:47:27.503Z,32.14
2018-09-08T07:48:05.665Z,32.17
2018-09-08T07:48:43.722Z,32.20
2018-09-08T07:49:21.661Z,32.24
2018-09-08T07:49:59.789Z,32.32
2018-09-08T07:50:37.795Z,32.38
2018-09-08T07:51:15.819Z,32.43
2018-09-08T07:51:53.765Z,32.49
2018-09-08T07:52:31.753Z,32.53
2018-09-08T07:53:10.103Z,32.55
2018-09-08T07:53:48.154Z,32.58
2018-09-08T07:54:26.261Z,32.61
2018-09-08T07:55:04.245Z,32.57
2018-09-08T07:55:42.315Z,32.61
2018-09-08T07:56:20.338Z,32.66
2018-09-08T07:56:58.644Z,32.64
2018-09-08T07:57:36.672Z,32.55
2018-09-08T07:58:14.764Z,32.49
2018-09-08T07:58:52.892Z,32.36
2018-09-08T07:59:30.938Z,32.29
2018-09-08T08:00:09.095Z,32.20
2018-09-08T08:00:49.996Z,32.15
2018-09-08T08:01:28.205Z,32.07
2018-09-08T08:02:06.118Z,32.03
2018-09-08T08:02:44.036Z,31.98
2018-09-08T08:03:22.073Z,31.89
2018-09-08T08:04:00.156Z,31.87
2018-09-08T08:04:38.299Z,31.81
2018-09-08T08:05:16.206Z,31.76
2018-09-08T08:05:54.232Z,31.68
2018-09-08T08:06:32.288Z,31.64
2018-09-08T08:07:15.897Z,31.59
2018-09-08T08:07:53.904Z,31.53
2018-09-08T08:08:31.945Z,31.47
2018-09-08T08:09:11.917Z,31.42